createdAt,value
2023-04-25T00:06:45.767Z,13.25
2023-04-25T00:17:12.405Z,13.29
2023-04-25T00:27:38.339Z,13.33
2023-04-25T00:38:04.377Z,13.25
2023-04-25T00:48:30.013Z,13.21
2023-04-25T00:58:57.726Z,13.20
2023-04-25T01:09:24.349Z,13.08
2023-04-25T01:19:50.516Z,12.75
2023-04-25T01:30:17.222Z,12.41
2023-04-25T01:40:46.907Z,12.23
2023-04-25T01:51:13.452Z,12.15
2023-04-25T02:01:39.299Z,12.07
2023-04-25T02:12:05.827Z,11.94
2023-04-25T02:22:31.996Z,11.86
2023-04-25T02:32:57.938Z,11.76
2023-04-25T02:43:32.240Z,11.62
2023-04-25T02:53:58.033Z,11.49
2023-04-25T03:04:24.961Z,11.44
2023-04-25T03:14:50.904Z,11.39
2023-04-25T03:25:17.204Z,11.36
2023-04-25T03:35:43.709Z,11.26
2023-04-25T03:46:09.796Z,11.16
2023-04-25T03:56:35.994Z,11.12
2023-04-25T04:07:02.245Z,11.14
2023-04-25T04:17:28.605Z,11.13
2023-04-25T04:27:55.816Z,11.07
2023-04-25T04:38:22.813Z,11.14
2023-04-25T04:48:48.308Z,11.22
2023-04-25T04:59:13.947Z,11.36
2023-04-25T05:09:39.863Z,11.46
2023-04-25T05:20:08.233Z,11.50
2023-04-25T05:30:34.158Z,11.56
2023-04-25T05:41:01.084Z,11.49
2023-04-25T05:51:27.134Z,11.46
2023-04-25T06:01:53.237Z,11.48
2023-04-25T06:12:19.022Z,11.38
2023-04-25T06:22:45.037Z,11.35
2023-04-25T06:33:11.376Z,11.34
2023-04-25T06:43:37.515Z,11.33
2023-04-25T06:54:05.239Z,11.40
2023-04-25T07:04:31.751Z,11.40
2023-04-25T07:14:57.595Z,11.52
2023-04-25T07:25:23.052Z,11.65
2023-04-25T07:35:49.141Z,11.72
2023-04-25T07:46:15.247Z,11.77
2023-04-25T07:56:51.521Z,11.89
2023-04-25T08:07:18.399Z,12.00
2023-04-25T08:17:45.137Z,12.14
2023-04-25T08:28:10.794Z,12.37
2023-04-25T08:38:37.679Z,12.60
2023-04-25T08:49:05.009Z,12.68
2023-04-25T08:59:31.873Z,12.68
2023-04-25T09:09:57.670Z,12.78
2023-04-25T09:20:23.803Z,12.75
2023-04-25T09:30:49.814Z,12.83
2023-04-25T09:41:28.492Z,12.96
2023-04-25T09:51:59.774Z,13.04
2023-04-25T10:02:27.171Z,13.13
2023-04-25T10:12:53.578Z,13.24
2023-04-25T10:23:19.257Z,13.22
2023-04-25T10:33:47.001Z,13.19
2023-04-25T10:44:12.880Z,13.18
2023-04-25T10:54:42.131Z,13.12
2023-04-25T11:05:09.507Z,13.12
2023-04-25T11:15:35.040Z,13.00
2023-04-25T11:26:02.329Z,13.00
2023-04-25T11:36:28.786Z,12.91
2023-04-25T11:46:54.921Z,12.94
2023-04-25T11:57:23.751Z,12.93
2023-04-25T12:07:50.157Z,12.89
2023-04-25T12:18:16.349Z,12.82
2023-04-25T12:28:42.116Z,12.81
2023-04-25T12:39:08.317Z,12.88
2023-04-25T12:49:34.524Z,12.92
2023-04-25T13:00:00.526Z,12.84
2023-04-25T13:10:26.438Z,12.81
2023-04-25T13:20:51.967Z,12.72
2023-04-25T13:31:18.227Z,12.72
2023-04-25T13:41:44.208Z,12.83
2023-04-25T13:52:10.581Z,13.03
2023-04-25T14:02:36.281Z,13.13
2023-04-25T14:13:04.381Z,13.25
2023-04-25T14:23:30.526Z,13.19
2023-04-25T14:33:58.638Z,13.26
2023-04-25T14:44:25.293Z,13.34
2023-04-25T14:54:51.265Z,13.32
2023-04-25T15:05:17.362Z,13.34
2023-04-25T15:15:43.538Z,13.34
2023-04-25T15:26:09.411Z,13.38
2023-04-25T15:36:35.194Z,13.30
2023-04-25T15:47:01.639Z,13.18
2023-04-25T15:57:27.519Z,13.19
2023-04-25T16:07:54.024Z,13.11
2023-04-25T16:18:19.828Z,13.05
2023-04-25T16:28:45.748Z,13.01
2023-04-25T16:39:11.638Z,13.02
2023-04-25T16:49:39.267Z,13.06
2023-04-25T17:00:05.854Z,13.00
2023-04-25T17:10:32.254Z,12.96
2023-04-25T17:20:58.280Z,12.91
2023-04-25T17:31:25.495Z,12.82
2023-04-25T17:41:51.725Z,12.65
2023-04-25T17:52:17.501Z,12.69
2023-04-25T18:02:45.579Z,12.52
2023-04-25T18:13:11.330Z,12.40
2023-04-25T18:23:38.504Z,12.39
2023-04-25T18:34:04.484Z,12.31
2023-04-25T18:44:32.308Z,12.05
2023-04-25T18:54:56.804Z,11.92
2023-04-25T19:05:22.680Z,12.13
2023-04-25T19:15:48.805Z,12.11
2023-04-25T19:26:15.065Z,11.88
2023-04-25T19:36:42.376Z,11.66
2023-04-25T19:47:08.647Z,11.56
2023-04-25T19:57:34.555Z,11.54
2023-04-25T20:08:00.253Z,11.36
2023-04-25T20:18:26.651Z,11.21
2023-04-25T20:28:53.450Z,11.11
2023-04-25T20:39:20.002Z,11.00
2023-04-25T20:49:46.208Z,10.84
2023-04-25T21:00:21.002Z,10.78
2023-04-25T21:10:46.537Z,10.72
2023-04-25T21:21:13.117Z,10.53
2023-04-25T21:31:39.655Z,10.45
2023-04-25T21:42:09.048Z,10.32
2023-04-25T21:52:35.155Z,10.05
2023-04-25T22:03:01.762Z,9.79
2023-04-25T22:13:29.151Z,9.62
2023-04-25T22:23:56.706Z,9.42
2023-04-25T22:34:23.082Z,9.31
2023-04-25T22:44:49.027Z,9.45
2023-04-25T22:55:14.672Z,9.55
2023-04-25T23:05:40.709Z,9.48
2023-04-25T23:16:11.712Z,9.39
2023-04-25T23:26:37.556Z,9.31
2023-04-25T23:37:04.549Z,9.26
2023-04-25T23:47:30.377Z,9.23
2023-04-25T23:57:56.784Z,9.22
